Time;durP1;ratioP1;P1;durP2;ratioP2;P2;SDS_P1;SDS_P2;PMS_P1;PMS_P2;Temp;Humidity;BMP_temperature;BMP_pressure;BME280_temperature;BME280_humidity;BME280_pressure;Samples;Min_cycle;Max_cycle;Signal;HPM_P1;HPM_P2
2021/11/08 05:24:08;;;;;;;76.77;31.30;;;4.80;99.70;;;;;;5040199;28;20540;-67
2021/11/08 05:32:03;;;;;;;74.20;28.57;;;5.00;99.70;;;;;;5031949;28;20419;-67
2021/11/08 05:34:31;;;;;;;76.60;32.20;;;5.00;99.70;;;;;;5031319;28;20460;-68
2021/11/08 05:36:57;;;;;;;75.17;30.83;;;5.40;99.70;;;;;;5030332;28;20460;-66
2021/11/08 05:39:24;;;;;;;72.43;30.77;;;5.20;99.70;;;;;;5040939;28;20466;-67
2021/11/08 05:41:51;;;;;;;74.53;28.90;;;5.30;99.70;;;;;;5043962;28;20486;-68
2021/11/08 05:44:18;;;;;;;72.13;28.97;;;5.20;99.70;;;;;;5034879;28;20900;-67
2021/11/08 05:46:45;;;;;;;74.80;30.30;;;5.20;99.70;;;;;;5041338;28;20475;-67
2021/11/08 05:49:12;;;;;;;71.53;25.83;;;5.30;99.70;;;;;;5052366;28;20491;-67
2021/11/08 05:51:41;;;;;;;92.47;34.00;;;5.30;99.70;;;;;;5044810;28;20467;-67
2021/11/08 05:54:08;;;;;;;87.60;30.20;;;5.20;99.70;;;;;;5034519;28;21013;-68
2021/11/08 05:56:43;;;;;;;89.20;34.10;;;5.30;99.70;;;;;;5031518;28;20468;-67
2021/11/08 05:59:29;;;;;;;88.97;31.17;;;5.30;99.70;;;;;;5046034;28;21013;-68
2021/11/08 06:49:06;;;;;;;89.90;27.80;;;4.40;99.70;;;;;;5030750;28;20474;-68
2021/11/08 06:51:32;;;;;;;88.13;22.33;;;4.40;99.70;;;;;;5030641;28;20449;-67
2021/11/08 06:54:02;;;;;;;84.90;27.30;;;4.30;99.70;;;;;;5031031;28;20472;-68
2021/11/08 06:56:34;;;;;;;84.47;27.97;;;4.40;99.70;;;;;;5030721;28;20444;-67
2021/11/08 06:59:03;;;;;;;82.87;29.43;;;4.40;99.70;;;;;;5031010;28;20448;-67
2021/11/08 07:01:30;;;;;;;79.40;28.60;;;4.40;99.70;;;;;;5031016;28;20457;-67
2021/11/08 07:03:57;;;;;;;85.07;26.63;;;4.40;99.70;;;;;;5030899;28;20473;-67
2021/11/08 07:06:24;;;;;;;76.33;27.70;;;4.50;99.70;;;;;;5030600;28;20480;-67
2021/11/08 07:08:51;;;;;;;79.67;28.43;;;4.60;99.70;;;;;;5030649;28;20494;-67
2021/11/08 07:11:18;;;;;;;86.43;32.70;;;4.60;99.70;;;;;;5030999;28;20452;-67
2021/11/08 07:13:47;;;;;;;89.40;32.67;;;4.70;99.70;;;;;;5030726;28;20507;-67
2021/11/08 07:16:13;;;;;;;92.57;35.90;;;4.80;99.70;;;;;;5030563;28;20452;-67
2021/11/08 07:18:40;;;;;;;85.97;33.93;;;4.90;99.70;;;;;;5030149;28;20448;-67
2021/11/08 07:21:07;;;;;;;86.27;30.27;;;5.20;99.70;;;;;;5030791;28;20441;-67
2021/11/08 07:23:34;;;;;;;77.17;25.40;;;5.30;99.70;;;;;;5030443;28;20853;-67
2021/11/08 07:26:00;;;;;;;72.80;19.07;;;5.20;99.70;;;;;;5030295;28;20482;-67
2021/11/08 07:28:27;;;;;;;76.57;18.00;;;5.00;99.70;;;;;;5029937;28;20448;-67
2021/11/08 07:30:55;;;;;;;68.13;17.57;;;5.00;99.70;;;;;;5030494;28;20444;-68
2021/11/08 07:33:23;;;;;;;68.83;16.13;;;4.90;99.70;;;;;;5030108;28;20511;-67
2021/11/08 07:35:49;;;;;;;63.83;14.43;;;4.90;99.70;;;;;;5029934;28;20991;-67
2021/11/08 07:38:16;;;;;;;67.90;13.50;;;4.80;99.70;;;;;;5029960;28;20484;-67
2021/11/08 07:40:43;;;;;;;65.70;13.00;;;4.80;99.70;;;;;;5035395;28;20495;-68
2021/11/08 07:43:09;;;;;;;62.57;13.07;;;4.80;99.70;;;;;;5038041;28;20469;-67
2021/11/08 07:45:36;;;;;;;64.93;13.70;;;4.80;99.70;;;;;;5040451;28;20498;-68
2021/11/08 07:48:06;;;;;;;65.03;13.77;;;4.90;99.70;;;;;;5039355;28;20445;-68
2021/11/08 07:50:33;;;;;;;66.33;14.60;;;5.00;99.70;;;;;;5038654;28;20711;-67
2021/11/08 07:53:00;;;;;;;66.73;14.40;;;5.20;99.70;;;;;;5037341;28;20460;-68
2021/11/08 07:55:26;;;;;;;70.10;19.00;;;5.30;99.70;;;;;;5030094;28;20452;-68
2021/11/08 07:57:53;;;;;;;72.70;16.77;;;5.30;99.70;;;;;;5029831;28;20977;-67
2021/11/08 08:00:22;;;;;;;74.53;16.93;;;5.40;99.70;;;;;;5038068;28;20466;-67
2021/11/08 08:02:50;;;;;;;68.90;16.30;;;5.40;99.70;;;;;;5040865;28;20456;-67
2021/11/08 08:05:19;;;;;;;72.17;17.43;;;5.40;99.70;;;;;;5037571;28;20507;-67
2021/11/08 08:07:46;;;;;;;71.40;16.90;;;5.30;99.70;;;;;;5040460;28;20446;-68
2021/11/08 08:10:13;;;;;;;71.37;17.00;;;5.50;99.70;;;;;;5039447;28;20445;-67
2021/11/08 08:12:40;;;;;;;71.00;16.53;;;5.40;99.70;;;;;;5030611;28;20468;-67
2021/11/08 08:15:07;;;;;;;75.57;16.70;;;5.40;99.70;;;;;;5029754;28;20951;-67
2021/11/08 08:17:36;;;;;;;68.47;15.20;;;5.40;99.70;;;;;;5028939;28;20449;-67
2021/11/08 08:20:04;;;;;;;73.23;16.33;;;5.20;99.70;;;;;;5029889;28;20449;-67
2021/11/08 08:22:32;;;;;;;70.93;19.47;;;5.30;99.70;;;;;;5030088;28;20473;-67
2021/11/08 08:25:08;;;;;;;72.03;17.33;;;5.90;99.70;;;;;;5030301;28;20477;-68
2021/11/08 08:27:35;;;;;;;69.13;14.90;;;5.70;99.70;;;;;;5029167;28;20444;-68
2021/11/08 08:30:02;;;;;;;70.73;15.87;;;5.80;99.70;;;;;;5040972;28;20467;-69
2021/11/08 08:32:29;;;;;;;67.63;15.20;;;5.90;99.70;;;;;;5048277;28;20874;-69
2021/11/08 08:34:56;;;;;;;66.60;14.10;;;5.90;99.70;;;;;;5049351;28;20447;-69
2021/11/08 08:37:23;;;;;;;68.70;14.20;;;5.90;99.70;;;;;;5048737;28;20482;-69
2021/11/08 08:39:52;;;;;;;63.27;13.23;;;5.90;99.70;;;;;;5049605;28;20905;-68
2021/11/08 08:42:19;;;;;;;68.23;15.17;;;6.10;99.70;;;;;;5048936;28;20436;-70
2021/11/08 08:44:46;;;;;;;71.43;14.80;;;6.10;99.70;;;;;;5049364;28;20444;-68
2021/11/08 08:47:13;;;;;;;64.83;13.83;;;6.00;99.70;;;;;;5051101;28;20478;-69
2021/11/08 08:49:41;;;;;;;66.07;14.10;;;6.00;99.70;;;;;;5053288;28;20446;-68
2021/11/08 08:52:08;;;;;;;66.40;14.63;;;6.10;99.70;;;;;;5053073;28;20435;-69
2021/11/08 08:54:35;;;;;;;63.57;14.53;;;6.20;99.70;;;;;;5052988;28;20818;-69
2021/11/08 08:57:04;;;;;;;74.60;15.37;;;6.20;99.70;;;;;;5052476;28;20808;-69
2021/11/08 08:59:30;;;;;;;69.27;15.53;;;6.20;99.70;;;;;;5053133;28;20467;-70
2021/11/08 09:01:57;;;;;;;78.70;17.30;;;6.30;99.70;;;;;;5052960;28;20875;-70
2021/11/08 09:04:25;;;;;;;71.77;14.70;;;6.30;99.70;;;;;;5052924;28;20501;-68
2021/11/08 09:06:52;;;;;;;64.47;14.17;;;6.40;99.70;;;;;;5051758;28;20494;-69
2021/11/08 09:09:19;;;;;;;72.83;17.93;;;6.60;99.70;;;;;;5052716;28;20505;-69
2021/11/08 09:11:46;;;;;;;69.80;17.87;;;6.70;99.70;;;;;;5052806;28;20497;-69
2021/11/08 09:14:14;;;;;;;77.93;19.03;;;6.70;99.70;;;;;;5052603;28;20528;-68
2021/11/08 09:16:41;;;;;;;76.00;19.27;;;6.80;99.70;;;;;;5052455;28;20823;-68
2021/11/08 09:19:08;;;;;;;79.20;20.53;;;6.80;99.70;;;;;;5051984;28;20439;-68
2021/11/08 09:21:36;;;;;;;68.87;20.63;;;7.00;99.70;;;;;;5052645;28;20937;-69
2021/11/08 09:24:06;;;;;;;74.17;22.10;;;7.20;99.70;;;;;;5052486;28;20471;-68
2021/11/08 09:26:34;;;;;;;69.03;21.47;;;7.40;99.70;;;;;;5052464;28;20505;-68
2021/11/08 09:29:02;;;;;;;74.97;20.60;;;7.30;99.70;;;;;;5050383;28;20451;-68
2021/11/08 09:31:30;;;;;;;72.87;18.03;;;7.70;99.70;;;;;;5032758;28;20665;-68
2021/11/08 09:34:03;;;;;;;66.10;18.37;;;8.00;99.70;;;;;;5032154;28;20775;-68
2021/11/08 09:36:31;;;;;;;66.13;18.70;;;8.30;99.70;;;;;;5032386;28;20445;-68
2021/11/08 09:38:59;;;;;;;65.53;21.43;;;8.50;99.70;;;;;;5032038;28;20445;-69
2021/11/08 09:41:31;;;;;;;66.03;19.30;;;8.70;99.70;;;;;;5032570;28;20449;-69
2021/11/08 09:44:00;;;;;;;65.13;19.03;;;8.70;99.70;;;;;;5032262;28;20461;-71
2021/11/08 09:46:27;;;;;;;61.60;21.20;;;8.70;99.70;;;;;;5032153;28;20499;-69
2021/11/08 09:48:56;;;;;;;62.57;21.17;;;8.80;99.70;;;;;;5032298;28;20816;-69
2021/11/08 09:51:23;;;;;;;65.50;17.87;;;8.80;99.70;;;;;;5032101;28;20459;-69
2021/11/08 09:53:50;;;;;;;59.80;16.30;;;8.80;99.70;;;;;;5031900;28;20495;-69
2021/11/08 09:56:16;;;;;;;63.30;16.90;;;8.50;99.70;;;;;;5041958;28;20440;-70
2021/11/08 09:58:43;;;;;;;63.77;14.33;;;8.30;99.70;;;;;;5050582;28;20451;-69
2021/11/08 10:01:12;;;;;;;64.37;15.03;;;8.10;99.70;;;;;;5051937;28;20463;-69
2021/11/08 10:03:40;;;;;;;64.80;15.23;;;8.30;99.70;;;;;;5051635;28;20978;-68
2021/11/08 10:06:09;;;;;;;62.00;15.47;;;8.70;99.70;;;;;;5051006;28;20472;-68
2021/11/08 10:08:37;;;;;;;66.70;17.63;;;8.80;99.70;;;;;;5051846;28;21048;-68
2021/11/08 10:11:08;;;;;;;66.00;20.00;;;9.00;99.70;;;;;;5051584;28;20447;-68
2021/11/08 10:13:36;;;;;;;67.87;18.77;;;9.00;99.70;;;;;;5051658;28;20527;-70
2021/11/08 10:16:05;;;;;;;67.80;18.83;;;8.80;99.70;;;;;;5051496;28;20455;-67
2021/11/08 10:18:33;;;;;;;62.60;15.67;;;8.70;99.70;;;;;;5051074;28;20509;-70
2021/11/08 10:21:08;;;;;;;62.73;16.63;;;8.80;99.70;;;;;;5051577;28;20439;-68
2021/11/08 10:23:38;;;;;;;63.70;16.40;;;8.70;99.70;;;;;;5051248;28;20483;-68
2021/11/08 10:26:09;;;;;;;63.63;13.20;;;8.70;99.70;;;;;;5051017;28;20574;-68
2021/11/08 10:28:37;;;;;;;62.70;15.57;;;8.60;99.70;;;;;;5051100;28;20455;-68
2021/11/08 10:31:09;;;;;;;59.17;11.70;;;8.60;99.70;;;;;;5051094;28;20447;-68
2021/11/08 10:33:36;;;;;;;56.30;10.57;;;8.80;99.70;;;;;;5051238;28;20466;-70
2021/11/08 10:36:09;;;;;;;65.27;14.27;;;8.80;99.70;;;;;;5051041;28;20814;-68
2021/11/08 10:38:40;;;;;;;61.63;14.20;;;8.90;99.70;;;;;;5051096;28;20448;-68
2021/11/08 10:41:09;;;;;;;61.53;14.20;;;9.00;99.70;;;;;;5051410;28;20826;-70
2021/11/08 10:43:38;;;;;;;60.87;12.40;;;9.10;99.70;;;;;;5050902;28;20475;-70
2021/11/08 10:46:09;;;;;;;60.60;13.17;;;9.20;99.70;;;;;;5050601;28;20998;-69
2021/11/08 10:48:38;;;;;;;64.07;14.57;;;9.30;99.70;;;;;;5050816;28;20444;-68
2021/11/08 10:51:08;;;;;;;64.07;13.93;;;9.20;99.70;;;;;;5051082;28;20459;-68
2021/11/08 10:53:49;;;;;;;57.23;12.57;;;9.10;99.70;;;;;;5050991;28;20967;-69
2021/11/08 10:56:21;;;;;;;63.00;14.70;;;8.90;99.70;;;;;;5050622;28;20436;-70
2021/11/08 10:58:48;;;;;;;63.77;15.40;;;8.70;99.70;;;;;;5050992;28;20817;-68
2021/11/08 11:01:37;;;;;;;58.63;12.30;;;8.50;99.70;;;;;;5050929;28;20821;-69
2021/11/08 11:04:06;;;;;;;59.50;13.00;;;8.40;99.70;;;;;;5045060;28;20480;-69
2021/11/08 11:06:42;;;;;;;61.47;14.33;;;8.50;99.70;;;;;;5050230;28;20479;-70
2021/11/08 11:09:13;;;;;;;59.67;14.53;;;8.50;99.70;;;;;;5050528;28;20443;-68
2021/11/08 11:11:39;;;;;;;66.87;14.60;;;8.50;99.70;;;;;;5050443;28;20451;-69
2021/11/08 11:14:06;;;;;;;64.60;13.77;;;8.80;99.70;;;;;;5050644;28;20467;-68
2021/11/08 11:16:35;;;;;;;61.93;14.20;;;9.00;99.70;;;;;;5050057;28;20704;-72
2021/11/08 11:19:06;;;;;;;62.70;12.70;;;9.10;99.70;;;;;;5050166;28;20448;-68
2021/11/08 11:21:32;;;;;;;63.70;13.00;;;9.10;99.70;;;;;;5050222;28;20448;-70
2021/11/08 11:24:05;;;;;;;62.80;12.20;;;9.20;99.70;;;;;;5050202;28;20486;-70
2021/11/08 11:26:48;;;;;;;57.80;14.20;;;9.20;99.70;;;;;;5049766;28;20506;-71
2021/11/08 11:29:26;;;;;;;60.10;13.90;;;9.30;99.70;;;;;;5050248;28;20452;-68
2021/11/08 11:31:53;;;;;;;60.70;15.43;;;9.40;99.70;;;;;;5050200;28;20482;-68
2021/11/08 11:34:20;;;;;;;62.00;16.30;;;9.50;99.70;;;;;;5050220;28;20475;-71
2021/11/08 11:36:47;;;;;;;64.33;16.43;;;9.50;99.70;;;;;;5049676;28;20816;-68
2021/11/08 11:39:17;;;;;;;59.80;16.70;;;9.60;99.70;;;;;;5050258;28;20460;-69
2021/11/08 11:41:47;;;;;;;62.47;16.87;;;9.20;99.70;;;;;;5049995;28;20958;-71
2021/11/08 11:44:18;;;;;;;62.30;16.47;;;9.10;99.70;;;;;;5050011;28;20468;-70
2021/11/08 11:46:49;;;;;;;57.37;14.27;;;8.90;99.70;;;;;;5049969;28;20486;-69
2021/11/08 11:49:17;;;;;;;63.50;13.67;;;8.70;99.70;;;;;;5050108;28;20446;-69
2021/11/08 11:51:47;;;;;;;58.47;15.53;;;8.60;99.70;;;;;;5049963;28;20451;-70
2021/11/08 11:54:16;;;;;;;59.43;14.40;;;8.50;99.70;;;;;;5049714;28;20517;-68
2021/11/08 11:56:47;;;;;;;60.33;13.07;;;8.60;99.70;;;;;;5049637;28;20801;-68
2021/11/08 11:59:16;;;;;;;62.47;13.30;;;8.60;99.70;;;;;;5049663;28;20562;-69
2021/11/08 12:01:44;;;;;;;57.00;12.47;;;8.60;99.70;;;;;;5049727;28;20462;-69
2021/11/08 12:04:12;;;;;;;57.20;11.20;;;8.70;99.70;;;;;;5049458;28;20460;-68
2021/11/08 12:06:42;;;;;;;55.70;11.30;;;8.70;99.70;;;;;;5049008;28;20487;-69
2021/11/08 12:09:11;;;;;;;59.27;13.27;;;8.70;99.70;;;;;;5049337;28;20609;-69
2021/11/08 12:11:41;;;;;;;65.50;14.50;;;8.70;99.70;;;;;;5049685;28;20447;-68
2021/11/08 12:14:14;;;;;;;58.07;13.70;;;8.70;99.70;;;;;;5049462;28;20562;-68
2021/11/08 12:16:53;;;;;;;56.00;11.70;;;8.70;99.70;;;;;;5049270;28;20543;-71
2021/11/08 12:19:20;;;;;;;54.77;11.53;;;8.70;99.70;;;;;;5049075;28;20448;-68
2021/11/08 12:21:48;;;;;;;62.23;12.50;;;8.70;99.70;;;;;;5048862;28;20447;-69
2021/11/08 12:24:18;;;;;;;54.43;11.23;;;8.80;99.70;;;;;;5049185;28;20544;-71
2021/11/08 12:26:45;;;;;;;61.73;12.37;;;8.90;99.70;;;;;;5049271;28;21025;-68
2021/11/08 12:29:18;;;;;;;65.17;14.10;;;8.80;99.70;;;;;;5046282;28;20441;-69
2021/11/08 12:31:46;;;;;;;57.33;12.13;;;8.80;99.70;;;;;;5029639;28;20932;-68
2021/11/08 12:34:20;;;;;;;62.13;12.00;;;8.70;99.70;;;;;;5029587;28;20472;-68
2021/11/08 12:36:58;;;;;;;59.40;13.60;;;8.70;99.70;;;;;;5036853;28;20954;-70
2021/11/08 12:39:26;;;;;;;60.23;12.57;;;8.70;99.70;;;;;;5049636;28;20497;-70
2021/11/08 12:42:00;;;;;;;59.43;14.67;;;8.80;99.70;;;;;;5048876;28;20455;-71
2021/11/08 12:44:39;;;;;;;56.60;9.77;;;8.60;99.70;;;;;;5047710;28;20800;-67
2021/11/08 12:47:08;;;;;;;59.40;10.97;;;8.70;99.70;;;;;;5037733;28;21082;-68
2021/11/08 12:49:39;;;;;;;57.27;10.93;;;8.80;99.70;;;;;;5031571;28;20455;-70
2021/11/08 12:52:12;;;;;;;54.60;10.93;;;8.80;99.70;;;;;;5034718;28;20456;-71
2021/11/08 12:54:48;;;;;;;55.10;10.30;;;8.70;99.70;;;;;;5039363;28;20463;-68
2021/11/08 12:57:17;;;;;;;58.50;11.30;;;8.80;99.70;;;;;;5028646;28;20444;-68
2021/11/08 12:59:49;;;;;;;61.07;11.63;;;8.80;99.70;;;;;;5037993;28;20448;-69
2021/11/08 13:02:23;;;;;;;65.77;12.43;;;8.80;99.70;;;;;;5048801;28;20443;-69
2021/11/08 13:04:51;;;;;;;59.50;12.07;;;8.70;99.70;;;;;;5048834;28;20524;-72
2021/11/08 13:07:20;;;;;;;59.43;9.70;;;8.70;99.70;;;;;;5048543;28;20475;-69
2021/11/08 13:09:49;;;;;;;55.40;8.70;;;8.60;99.70;;;;;;5049287;28;20532;-68
2021/11/08 13:12:18;;;;;;;67.00;9.00;;;8.70;99.70;;;;;;5049014;28;20448;-69
2021/11/08 13:14:49;;;;;;;57.23;8.97;;;8.80;99.70;;;;;;5042699;28;20502;-68
2021/11/08 13:17:19;;;;;;;58.80;9.07;;;8.90;99.70;;;;;;5029199;28;20836;-70
2021/11/08 13:19:50;;;;;;;58.70;11.00;;;9.10;99.70;;;;;;5028872;28;20448;-70
2021/11/08 13:22:21;;;;;;;56.93;10.83;;;9.10;99.70;;;;;;5034448;28;20455;-69
2021/11/08 13:24:58;;;;;;;55.17;9.83;;;9.10;99.70;;;;;;5047829;28;20459;-69
2021/11/08 13:27:24;;;;;;;53.27;12.63;;;9.00;99.70;;;;;;5047045;28;20537;-69
2021/11/08 13:29:57;;;;;;;57.40;10.33;;;9.10;99.70;;;;;;5047848;28;20447;-68
2021/11/08 13:32:27;;;;;;;57.77;11.23;;;9.30;99.70;;;;;;5048486;28;20448;-68
2021/11/08 13:34:55;;;;;;;56.80;10.67;;;9.50;99.70;;;;;;5033102;28;20437;-72
2021/11/08 13:37:22;;;;;;;55.53;9.10;;;9.50;99.70;;;;;;5032284;28;20463;-69
2021/11/08 13:39:51;;;;;;;57.30;9.37;;;9.70;99.70;;;;;;5032881;28;20445;-69
2021/11/08 13:42:20;;;;;;;61.90;10.33;;;9.70;99.70;;;;;;5032127;28;20931;-69
2021/11/08 13:44:47;;;;;;;54.07;9.00;;;9.60;99.70;;;;;;5032408;28;20971;-69
2021/11/08 13:47:15;;;;;;;53.53;8.80;;;9.70;99.70;;;;;;5032184;28;20480;-68
2021/11/08 13:49:42;;;;;;;56.00;11.20;;;9.80;99.70;;;;;;5034539;28;21126;-68
2021/11/08 13:52:09;;;;;;;54.23;9.27;;;9.80;99.70;;;;;;5051995;28;20538;-69
2021/11/08 13:54:37;;;;;;;65.27;7.70;;;9.70;99.70;;;;;;5052043;28;20460;-69
2021/11/08 13:57:06;;;;;;;56.57;8.87;;;9.80;99.70;;;;;;5049734;28;20828;-68
2021/11/08 13:59:36;;;;;;;52.00;8.93;;;9.90;99.70;;;;;;5050695;28;20454;-69
2021/11/08 14:02:06;;;;;;;53.17;9.40;;;9.80;99.70;;;;;;5051938;28;20455;-68
2021/11/08 14:04:36;;;;;;;51.07;9.30;;;9.80;99.70;;;;;;5052043;28;20590;-71
2021/11/08 14:07:04;;;;;;;52.13;9.80;;;9.80;99.70;;;;;;5050866;28;20884;-69
2021/11/08 14:09:31;;;;;;;52.90;11.40;;;9.80;99.70;;;;;;5052048;28;20454;-69
2021/11/08 14:12:02;;;;;;;55.87;12.20;;;9.60;99.70;;;;;;5048982;28;20505;-67
2021/11/08 14:14:31;;;;;;;55.90;11.43;;;9.70;99.70;;;;;;5050702;28;20486;-70
2021/11/08 14:17:10;;;;;;;54.67;9.70;;;9.50;99.70;;;;;;5050970;28;20439;-67
2021/11/08 14:19:38;;;;;;;73.10;12.90;;;9.50;99.70;;;;;;5051726;28;20977;-68
2021/11/08 14:22:05;;;;;;;59.57;9.10;;;9.60;99.70;;;;;;5051891;28;20443;-67
2021/11/08 14:24:36;;;;;;;55.33;11.67;;;9.80;99.70;;;;;;5050848;28;21052;-68
2021/11/08 14:27:04;;;;;;;53.03;10.80;;;9.80;99.70;;;;;;5052599;28;20480;-67
2021/11/08 14:29:32;;;;;;;52.30;11.40;;;9.90;99.70;;;;;;5046792;28;20986;-67
2021/11/08 14:32:01;;;;;;;57.80;13.23;;;9.90;99.70;;;;;;5051597;28;20455;-68
2021/11/08 14:34:32;;;;;;;57.57;14.10;;;9.90;99.70;;;;;;5049446;28;20468;-67
2021/11/08 14:37:07;;;;;;;56.13;13.03;;;9.80;99.70;;;;;;5051237;28;20440;-67
2021/11/08 14:39:41;;;;;;;54.20;13.17;;;9.90;99.70;;;;;;5051185;28;20450;-68
2021/11/08 14:42:08;;;;;;;54.60;13.30;;;9.80;99.70;;;;;;5051601;28;20456;-67
2021/11/08 14:44:40;;;;;;;56.43;11.27;;;9.80;99.70;;;;;;5050339;28;20517;-67
2021/11/08 14:47:21;;;;;;;50.87;9.70;;;9.90;99.70;;;;;;5050518;28;20487;-68
2021/11/08 14:49:59;;;;;;;52.73;12.30;;;9.80;99.70;;;;;;5050424;28;20451;-68
2021/11/08 14:52:33;;;;;;;54.53;14.23;;;9.80;99.70;;;;;;5051426;28;20448;-68
2021/11/08 14:55:01;;;;;;;54.23;14.10;;;9.80;99.70;;;;;;5050804;28;20439;-67
2021/11/08 14:57:32;;;;;;;62.10;18.53;;;9.80;99.70;;;;;;5044979;28;20449;-67
2021/11/08 15:00:03;;;;;;;58.37;19.67;;;9.70;99.70;;;;;;5032100;28;20878;-68
2021/11/08 15:02:31;;;;;;;64.73;18.87;;;9.50;99.70;;;;;;5030920;28;21225;-67
2021/11/08 15:04:59;;;;;;;55.53;13.77;;;9.30;99.70;;;;;;5035580;28;20445;-68
2021/11/08 15:07:35;;;;;;;54.37;10.10;;;9.30;99.70;;;;;;5030194;28;20906;-68
2021/11/08 15:10:06;;;;;;;57.33;12.20;;;9.20;99.70;;;;;;5030981;28;20982;-68
2021/11/08 15:12:34;;;;;;;55.40;11.40;;;9.10;99.70;;;;;;5030816;28;20503;-68
2021/11/08 15:15:05;;;;;;;55.40;11.60;;;9.10;99.70;;;;;;5030860;28;20444;-68
2021/11/08 15:17:35;;;;;;;53.47;15.10;;;9.00;99.70;;;;;;5029885;28;20436;-67
2021/11/08 15:20:27;;;;;;;56.10;15.80;;;8.90;99.70;;;;;;5030749;28;20518;-67
2021/11/08 15:22:57;;;;;;;59.67;17.23;;;9.00;99.70;;;;;;5023818;28;20493;-68
2021/11/08 15:25:28;;;;;;;61.37;20.40;;;8.80;99.70;;;;;;5030647;28;20441;-66
2021/11/08 15:28:17;;;;;;;63.97;20.80;;;8.80;99.70;;;;;;5029733;28;20491;-67
2021/11/08 15:30:49;;;;;;;62.40;17.27;;;8.70;99.70;;;;;;5048877;28;20835;-67
2021/11/08 15:33:19;;;;;;;64.00;22.63;;;8.40;99.70;;;;;;5050173;28;20959;-67
2021/11/08 15:35:50;;;;;;;64.47;19.87;;;8.20;99.70;;;;;;5050360;28;20443;-67
2021/11/08 15:38:24;;;;;;;60.83;19.87;;;8.20;99.70;;;;;;5049736;28;20436;-67
2021/11/08 15:40:52;;;;;;;59.17;18.17;;;7.90;99.70;;;;;;5050404;28;20444;-68
2021/11/08 15:43:21;;;;;;;62.27;23.27;;;7.90;99.70;;;;;;5050038;28;21054;-68
2021/11/08 15:45:51;;;;;;;64.17;20.10;;;7.90;99.70;;;;;;5050238;28;20931;-67
2021/11/08 15:48:19;;;;;;;62.93;19.93;;;7.70;99.70;;;;;;5049530;28;20475;-67
2021/11/08 15:50:46;;;;;;;68.80;22.13;;;7.60;99.70;;;;;;5050069;28;20455;-67
2021/11/08 15:53:14;;;;;;;61.43;22.57;;;7.40;99.70;;;;;;5048890;28;20467;-68
2021/11/08 15:55:42;;;;;;;66.20;20.43;;;7.40;99.70;;;;;;5048125;28;20451;-67
2021/11/08 15:58:11;;;;;;;63.90;22.10;;;7.40;99.70;;;;;;5048149;28;20440;-67
2021/11/08 16:00:40;;;;;;;61.67;21.27;;;7.20;99.70;;;;;;5047925;28;20454;-67
2021/11/08 16:03:07;;;;;;;66.13;21.47;;;7.10;99.70;;;;;;5048061;28;20471;-68
2021/11/08 16:05:35;;;;;;;79.43;19.60;;;7.00;99.70;;;;;;5047924;28;20439;-67
2021/11/08 16:08:02;;;;;;;63.37;21.00;;;6.90;99.70;;;;;;5047748;28;20993;-68
2021/11/08 16:10:29;;;;;;;62.10;21.83;;;6.80;99.70;;;;;;5049648;28;20848;-68
2021/11/08 16:12:58;;;;;;;65.57;23.00;;;6.80;99.70;;;;;;5049771;28;20777;-67
2021/11/08 16:15:25;;;;;;;61.77;21.47;;;6.80;99.70;;;;;;5046519;28;20491;-68
2021/11/08 16:17:52;;;;;;;64.00;21.50;;;6.80;99.70;;;;;;5029876;28;20970;-68
2021/11/08 16:20:21;;;;;;;65.57;22.20;;;6.70;99.70;;;;;;5029706;28;20476;-67
2021/11/08 16:22:49;;;;;;;66.37;20.50;;;6.50;99.70;;;;;;5029853;28;20488;-67
2021/11/08 16:25:17;;;;;;;66.27;22.17;;;6.50;99.70;;;;;;5029640;28;20448;-67
2021/11/08 16:27:45;;;;;;;62.67;19.80;;;6.40;99.70;;;;;;5028952;28;20486;-67
2021/11/08 16:30:14;;;;;;;67.37;19.60;;;6.40;99.70;;;;;;5028169;28;20995;-68
2021/11/08 16:32:56;;;;;;;61.63;16.93;;;6.40;99.70;;;;;;5029882;28;20563;-67
2021/11/08 16:35:24;;;;;;;69.67;16.07;;;6.30;99.70;;;;;;5029448;28;20447;-67
2021/11/08 16:37:52;;;;;;;64.90;18.90;;;6.30;99.70;;;;;;5029343;28;20952;-68
2021/11/08 16:40:19;;;;;;;63.23;20.87;;;6.30;99.70;;;;;;5029431;28;20451;-67
2021/11/08 16:42:49;;;;;;;66.87;22.73;;;6.20;99.70;;;;;;5029227;28;20464;-67
2021/11/08 16:45:18;;;;;;;68.87;18.40;;;6.10;99.70;;;;;;5029674;28;20522;-68
2021/11/08 16:47:45;;;;;;;69.10;23.37;;;6.00;99.70;;;;;;5029038;28;20908;-67
2021/11/08 16:50:12;;;;;;;70.23;21.33;;;6.00;99.70;;;;;;5029389;28;20441;-67
2021/11/08 16:52:39;;;;;;;69.27;22.57;;;5.90;99.70;;;;;;5035055;28;20475;-67
2021/11/08 16:55:06;;;;;;;68.60;20.00;;;5.90;99.70;;;;;;5038109;28;20825;-67
2021/11/08 16:57:33;;;;;;;67.67;20.23;;;5.80;99.70;;;;;;5029232;28;20449;-66
2021/11/08 17:00:01;;;;;;;71.27;20.83;;;5.80;99.70;;;;;;5029788;28;20445;-67
2021/11/08 17:02:29;;;;;;;68.27;23.53;;;5.80;99.70;;;;;;5029035;28;21059;-67
2021/11/08 17:04:56;;;;;;;80.33;25.90;;;5.80;99.70;;;;;;5029421;28;20455;-67
2021/11/08 17:07:28;;;;;;;101.80;29.77;;;5.80;99.70;;;;;;5029898;28;20876;-67
2021/11/08 17:10:15;;;;;;;105.63;30.63;;;5.80;99.70;;;;;;5035863;28;20443;-67
2021/11/08 17:15:28;;;;;;;85.10;25.10;;;6.00;99.70;;;;;;5033478;28;20417;-68
2021/11/08 17:17:59;;;;;;;74.87;21.80;;;6.00;99.70;;;;;;5032233;28;20498;-68
2021/11/08 17:20:26;;;;;;;85.17;24.67;;;6.00;99.70;;;;;;5042521;28;20521;-68
2021/11/08 17:22:54;;;;;;;76.80;23.30;;;6.20;99.70;;;;;;5042134;28;20498;-68
2021/11/08 17:25:22;;;;;;;74.30;25.33;;;6.20;99.70;;;;;;5039875;28;20550;-68
2021/11/08 17:27:49;;;;;;;82.07;27.80;;;6.20;99.70;;;;;;5043312;28;20560;-68
2021/11/08 17:30:16;;;;;;;83.67;26.93;;;6.30;99.70;;;;;;5050992;28;20463;-67
2021/11/08 17:32:43;;;;;;;84.90;28.80;;;6.30;99.70;;;;;;5048256;28;20559;-67
2021/11/08 17:35:12;;;;;;;79.93;27.40;;;6.30;99.70;;;;;;5039412;28;20459;-67
2021/11/08 17:37:40;;;;;;;83.70;27.53;;;6.30;99.70;;;;;;5042347;28;20828;-68
2021/11/08 17:40:09;;;;;;;93.23;26.47;;;6.30;99.70;;;;;;5048109;28;20466;-68
2021/11/08 17:42:37;;;;;;;80.03;25.07;;;6.30;99.70;;;;;;5046817;28;20478;-67
2021/11/08 17:45:06;;;;;;;78.57;23.17;;;6.30;99.70;;;;;;5044223;28;20471;-68
2021/11/08 17:47:34;;;;;;;74.93;19.83;;;6.30;99.70;;;;;;5045519;28;20464;-68
2021/11/08 17:50:02;;;;;;;70.27;21.00;;;6.30;99.70;;;;;;5041169;28;20550;-68
2021/11/08 17:52:31;;;;;;;69.07;21.40;;;6.30;99.70;;;;;;5048285;28;20591;-68
2021/11/08 17:55:04;;;;;;;71.33;20.20;;;6.20;99.70;;;;;;5039194;28;20459;-68
2021/11/08 17:57:31;;;;;;;69.50;18.10;;;6.20;99.70;;;;;;5041191;28;20704;-68
2021/11/08 17:59:59;;;;;;;78.63;20.60;;;6.40;99.70;;;;;;5041076;28;20460;-68
2021/11/08 18:02:26;;;;;;;73.93;20.07;;;6.30;99.70;;;;;;5042807;28;20904;-68
2021/11/08 18:04:54;;;;;;;75.97;24.07;;;6.20;99.70;;;;;;5042375;28;20459;-68
2021/11/08 18:07:21;;;;;;;81.37;22.40;;;6.10;99.70;;;;;;5046581;28;20447;-68
2021/11/08 18:09:49;;;;;;;89.10;26.23;;;6.00;99.70;;;;;;5048462;28;20494;-68
2021/11/08 18:12:16;;;;;;;120.17;34.47;;;5.90;99.70;;;;;;5049745;28;20448;-68
2021/11/08 18:14:44;;;;;;;93.60;27.97;;;5.70;99.70;;;;;;5039660;28;20459;-68
2021/11/08 18:17:11;;;;;;;101.27;27.47;;;5.70;99.70;;;;;;5029748;28;20972;-68
2021/11/08 18:19:41;;;;;;;103.43;28.53;;;5.70;99.70;;;;;;5029240;28;20547;-68
2021/11/08 18:22:25;;;;;;;119.57;30.10;;;5.70;99.70;;;;;;5031793;28;20448;-68
2021/11/08 18:25:09;;;;;;;92.60;28.20;;;5.80;99.70;;;;;;5031940;28;20455;-68
2021/11/08 18:27:37;;;;;;;104.30;33.27;;;5.70;99.70;;;;;;5032701;28;20440;-68
2021/11/08 18:30:05;;;;;;;90.60;31.20;;;5.70;99.70;;;;;;5031520;28;20480;-68
2021/11/08 18:32:32;;;;;;;96.97;31.97;;;5.80;99.70;;;;;;5031461;28;20526;-67
2021/11/08 18:35:01;;;;;;;94.03;31.83;;;5.80;99.70;;;;;;5031412;28;20457;-68
2021/11/08 18:37:27;;;;;;;91.47;30.10;;;5.70;99.70;;;;;;5042087;28;20478;-68
2021/11/08 18:39:56;;;;;;;85.87;30.43;;;5.80;99.70;;;;;;5040779;28;20456;-68
2021/11/08 18:42:23;;;;;;;86.17;29.07;;;5.70;99.70;;;;;;5031309;28;20448;-68
2021/11/08 18:44:50;;;;;;;95.77;29.20;;;5.60;99.70;;;;;;5031074;28;20948;-68
2021/11/08 18:47:17;;;;;;;100.17;33.80;;;5.60;99.70;;;;;;5040219;28;20484;-68
2021/11/08 18:49:44;;;;;;;120.13;35.70;;;5.60;99.70;;;;;;5048297;28;20487;-68
2021/11/08 18:52:12;;;;;;;117.33;31.43;;;5.50;99.70;;;;;;5050729;28;20899;-68
2021/11/08 18:54:40;;;;;;;127.47;40.10;;;5.50;99.70;;;;;;5050880;28;20447;-68
2021/11/08 18:57:09;;;;;;;127.50;41.70;;;5.50;99.70;;;;;;5049031;28;20452;-68
2021/11/08 18:59:38;;;;;;;166.83;49.57;;;5.50;99.70;;;;;;5048271;28;20836;-68
2021/11/08 19:02:09;;;;;;;191.83;61.13;;;5.40;99.70;;;;;;5048998;28;20464;-68
2021/11/08 19:04:40;;;;;;;166.23;49.57;;;5.40;99.70;;;;;;5033760;28;20464;-68
2021/11/08 19:07:16;;;;;;;103.00;37.43;;;5.40;99.70;;;;;;5040636;28;20496;-68